Time;durP1;ratioP1;P1;durP2;ratioP2;P2;SDS_P1;SDS_P2;PMS_P1;PMS_P2;Temp;Humidity;BMP_temperature;BMP_pressure;BME280_temperature;BME280_humidity;BME280_pressure;Samples;Min_cycle;Max_cycle;Signal;HPM_P1;HPM_P2
2022/09/02 00:01:28;;;;;;;3.95;1.50;;;;;;;15.04;76.81;101177.59;1617712;88;21120;-76
2022/09/02 00:04:00;;;;;;;2.60;1.35;;;;;;;15.00;76.80;101178.67;1617290;87;21094;-76
2022/09/02 00:06:30;;;;;;;3.30;1.30;;;;;;;14.96;76.93;101177.06;1617054;88;21491;-76
2022/09/02 00:08:58;;;;;;;2.50;1.07;;;;;;;14.94;77.14;101180.25;1618078;88;21163;-77
2022/09/02 00:11:29;;;;;;;2.72;1.30;;;;;;;14.92;77.36;101178.98;1617856;88;21526;-77
2022/09/02 00:13:59;;;;;;;2.05;1.40;;;;;;;14.89;77.20;101167.71;1618023;88;21067;-77
2022/09/02 00:16:26;;;;;;;3.60;1.32;;;;;;;14.87;77.18;101171.72;1617731;88;21067;-77
2022/09/02 00:18:55;;;;;;;4.75;1.27;;;;;;;14.86;77.17;101174.45;1617713;88;21064;-77
2022/09/02 00:21:23;;;;;;;4.62;1.40;;;;;;;14.85;77.13;101171.39;1617644;88;21103;-76
2022/09/02 00:23:50;;;;;;;3.22;1.20;;;;;;;14.83;77.32;101170.62;1617703;87;21585;-77
2022/09/02 00:26:17;;;;;;;4.00;1.20;;;;;;;14.80;77.09;101167.64;1617755;88;21550;-76
2022/09/02 00:28:45;;;;;;;3.83;1.22;;;;;;;14.77;77.35;101174.81;1617661;88;21044;-77
2022/09/02 00:31:14;;;;;;;2.17;1.30;;;;;;;14.73;77.42;101168.81;1617908;88;21031;-76
2022/09/02 00:33:41;;;;;;;2.02;1.30;;;;;;;14.69;77.48;101165.45;1617863;88;21044;-76
2022/09/02 00:36:09;;;;;;;2.70;1.20;;;;;;;14.64;77.43;101168.74;1618036;88;21139;-77
2022/09/02 00:38:38;;;;;;;4.12;1.40;;;;;;;14.59;77.42;101175.98;1617842;88;21160;-77
2022/09/02 00:41:08;;;;;;;2.75;1.47;;;;;;;14.55;77.50;101169.56;1618454;88;21083;-77
2022/09/02 00:43:56;;;;;;;3.40;1.30;;;;;;;14.52;77.62;101175.83;1617827;88;21131;-77
2022/09/02 00:46:27;;;;;;;3.12;1.30;;;;;;;14.49;77.88;101168.01;1618054;88;21075;-76
2022/09/02 00:48:59;;;;;;;1.32;0.93;;;;;;;14.45;78.10;101166.44;1613700;88;21313;-77
2022/09/02 00:51:34;;;;;;;7.08;1.62;;;;;;;14.41;78.36;101171.42;1605406;88;21125;-77
2022/09/02 00:54:03;;;;;;;3.77;1.20;;;;;;;14.41;78.53;101167.47;1617645;88;21064;-77
2022/09/02 00:56:31;;;;;;;2.35;1.52;;;;;;;14.44;78.94;101166.05;1619718;87;21047;-76
2022/09/02 00:59:00;;;;;;;3.20;1.27;;;;;;;14.47;78.64;101169.41;1617879;88;21064;-77
2022/09/02 01:01:27;;;;;;;4.53;1.62;;;;;;;14.48;78.45;101167.16;1618069;87;21063;-76
2022/09/02 01:03:55;;;;;;;2.40;1.30;;;;;;;14.47;78.36;101166.77;1617769;88;21325;-76
2022/09/02 01:06:26;;;;;;;3.83;1.30;;;;;;;14.51;78.39;101168.81;1618026;88;21075;-76
2022/09/02 01:08:58;;;;;;;1.72;0.98;;;;;;;14.51;78.35;101168.81;1617811;88;21111;-76
2022/09/02 01:11:37;;;;;;;4.75;1.40;;;;;;;14.47;78.31;101169.41;1618239;88;22106;-77
2022/09/02 01:14:05;;;;;;;2.77;1.40;;;;;;;14.45;78.35;101171.70;1617832;88;21092;-76
2022/09/02 01:16:42;;;;;;;4.00;1.20;;;;;;;14.43;78.37;101168.27;1618244;87;21128;-76
2022/09/02 01:19:23;;;;;;;4.10;2.20;;;;;;;14.40;78.21;101169.71;1617517;88;21143;-77
2022/09/02 01:21:54;;;;;;;2.55;1.30;;;;;;;14.33;78.07;101174.83;1617886;88;21604;-76
2022/09/02 01:24:27;;;;;;;2.17;1.30;;;;;;;14.29;78.22;101176.73;1608509;88;21042;-77
2022/09/02 01:26:57;;;;;;;4.87;1.52;;;;;;;14.25;78.28;101173.38;1618204;88;21087;-76
2022/09/02 01:29:27;;;;;;;6.85;1.65;;;;;;;14.22;78.29;101168.69;1617965;88;21796;-76
2022/09/02 01:31:54;;;;;;;2.27;1.40;;;;;;;14.19;78.27;101169.67;1618086;88;28200;-76
2022/09/02 01:34:21;;;;;;;3.25;1.80;;;;;;;14.13;78.27;101169.89;1617916;88;21458;-76
2022/09/02 01:36:49;;;;;;;3.85;1.50;;;;;;;14.08;78.40;101172.30;1618073;87;21096;-76
2022/09/02 01:39:16;;;;;;;4.62;1.75;;;;;;;14.02;78.47;101176.92;1617777;87;21135;-77
2022/09/02 01:41:44;;;;;;;3.67;1.47;;;;;;;13.96;78.57;101175.82;1617952;88;21265;-76
2022/09/02 01:44:14;;;;;;;5.15;1.20;;;;;;;13.89;78.64;101174.36;1617778;88;21069;-76
2022/09/02 01:46:41;;;;;;;2.00;1.27;;;;;;;13.84;78.69;101177.62;1617906;88;22060;-76
2022/09/02 01:49:09;;;;;;;3.22;1.50;;;;;;;13.78;78.61;101176.55;1617796;88;21116;-77
2022/09/02 01:51:36;;;;;;;2.95;1.55;;;;;;;13.75;78.55;101182.79;1617842;88;21067;-77
2022/09/02 01:54:04;;;;;;;2.72;1.60;;;;;;;13.70;78.78;101177.30;1617812;86;21740;-76
2022/09/02 01:56:32;;;;;;;3.50;1.60;;;;;;;13.65;78.95;101181.88;1617858;88;21020;-77
2022/09/02 01:59:01;;;;;;;3.47;1.55;;;;;;;13.57;78.87;101178.20;1617694;88;21366;-76
2022/09/02 02:01:28;;;;;;;4.47;1.47;;;;;;;13.52;78.91;101182.34;1617871;88;21075;-76
2022/09/02 02:03:55;;;;;;;4.42;1.55;;;;;;;13.46;79.11;101175.95;1605877;88;21086;-76
2022/09/02 02:06:23;;;;;;;2.95;1.30;;;;;;;13.47;79.58;101180.33;1618501;88;21647;-76
2022/09/02 02:08:52;;;;;;;4.50;1.30;;;;;;;13.43;79.58;101171.27;1618032;88;21040;-76
2022/09/02 02:11:23;;;;;;;5.25;1.67;;;;;;;13.38;79.78;101180.20;1617785;88;21107;-76
2022/09/02 02:13:52;;;;;;;2.52;1.47;;;;;;;13.34;79.69;101174.64;1617733;88;21067;-76
2022/09/02 02:16:22;;;;;;;2.27;1.70;;;;;;;13.30;79.59;101176.98;1617934;88;21020;-75
2022/09/02 02:18:49;;;;;;;2.92;1.60;;;;;;;13.29;80.04;101170.45;1618112;87;21107;-76
2022/09/02 02:21:16;;;;;;;3.77;1.40;;;;;;;13.29;80.21;101170.45;1617698;88;21075;-76
2022/09/02 02:23:45;;;;;;;4.50;1.70;;;;;;;13.28;80.49;101163.02;1617921;88;21565;-76
2022/09/02 02:26:11;;;;;;;4.87;1.50;;;;;;;13.29;80.49;101165.19;1617855;88;20936;-76
2022/09/02 02:28:39;;;;;;;6.00;1.50;;;;;;;13.28;80.64;101170.91;1618315;88;21075;-76
2022/09/02 02:31:06;;;;;;;4.80;1.47;;;;;;;13.26;80.56;101167.47;1617872;88;21282;-76
2022/09/02 02:33:34;;;;;;;4.15;1.30;;;;;;;13.24;80.75;101174.98;1617918;88;21543;-76
2022/09/02 02:36:06;;;;;;;2.75;1.50;;;;;;;13.24;80.84;101172.34;1617256;88;21079;-76
2022/09/02 02:38:36;;;;;;;2.35;1.22;;;;;;;13.25;80.98;101175.41;1617943;88;21502;-76
2022/09/02 02:41:05;;;;;;;2.33;1.32;;;;;;;13.24;81.10;101169.25;1617882;88;21032;-76
2022/09/02 02:43:35;;;;;;;1.52;1.32;;;;;;;13.24;81.38;101173.67;1597711;87;21151;-76
2022/09/02 02:46:03;;;;;;;5.72;1.52;;;;;;;13.26;81.57;101174.52;1617869;88;21028;-76
2022/09/02 02:48:32;;;;;;;2.72;1.20;;;;;;;13.27;81.76;101174.91;1617713;87;21087;-76
2022/09/02 02:50:59;;;;;;;2.45;1.40;;;;;;;13.26;81.82;101172.73;1617769;87;21016;-76
2022/09/02 02:53:28;;;;;;;2.70;1.42;;;;;;;13.27;81.77;101174.91;1618283;87;21036;-76
2022/09/02 02:55:58;;;;;;;3.75;1.40;;;;;;;13.26;81.88;101171.42;1619607;87;21148;-76
2022/09/02 02:58:25;;;;;;;2.62;1.42;;;;;;;13.27;82.20;101175.75;1619317;87;21481;-76
2022/09/02 03:00:55;;;;;;;3.85;1.75;;;;;;;13.28;82.28;101169.59;1610282;87;21056;-76
2022/09/02 03:03:23;;;;;;;3.40;1.62;;;;;;;13.28;82.27;101168.28;1619338;87;21501;-76
2022/09/02 03:05:52;;;;;;;3.47;1.50;;;;;;;13.25;82.24;101164.88;1619411;87;21291;-76
2022/09/02 03:08:20;;;;;;;3.75;2.05;;;;;;;13.25;82.53;101164.41;1619556;87;21121;-76
2022/09/02 03:10:53;;;;;;;3.45;1.35;;;;;;;13.25;82.52;101155.66;1619309;87;21068;-76
2022/09/02 03:13:18;;;;;;;4.42;1.52;;;;;;;13.23;82.38;101159.65;1619407;87;21066;-76
2022/09/02 03:15:45;;;;;;;4.87;1.55;;;;;;;13.21;82.41;101156.67;1619324;87;21059;-76
2022/09/02 03:18:13;;;;;;;2.83;1.42;;;;;;;13.19;82.32;101156.74;1619418;87;21573;-76
2022/09/02 03:20:42;;;;;;;2.83;1.35;;;;;;;13.14;82.35;101152.09;1619342;87;22430;-76
2022/09/02 03:23:11;;;;;;;3.25;1.42;;;;;;;13.12;82.55;101150.81;1619394;87;21104;-75
2022/09/02 03:25:43;;;;;;;2.05;1.42;;;;;;;13.11;82.50;101156.16;1619570;87;21016;-76
2022/09/02 03:28:12;;;;;;;3.33;1.42;;;;;;;13.06;82.41;101154.98;1618658;87;21058;-76
2022/09/02 03:30:41;;;;;;;4.22;1.72;;;;;;;13.03;82.56;101155.10;1619311;87;21068;-76
2022/09/02 03:33:08;;;;;;;3.83;1.30;;;;;;;13.02;82.63;101153.83;1619331;87;21117;-76
2022/09/02 03:35:44;;;;;;;3.05;1.57;;;;;;;12.97;82.47;101153.13;1619294;87;21597;-76
2022/09/02 03:38:12;;;;;;;1.90;1.35;;;;;;;12.91;82.40;101155.51;1619343;87;21556;-76
2022/09/02 03:40:40;;;;;;;2.05;1.67;;;;;;;12.86;82.37;101157.00;1619634;87;21064;-76
2022/09/02 03:43:07;;;;;;;3.50;1.60;;;;;;;12.79;82.34;101155.95;1619364;87;21020;-76
2022/09/02 03:45:37;;;;;;;3.67;1.70;;;;;;;12.75;82.44;101154.31;1619439;87;21160;-76
2022/09/02 03:48:04;;;;;;;1.98;1.30;;;;;;;12.70;82.40;101156.66;1619488;87;21051;-76
2022/09/02 03:50:38;;;;;;;2.40;1.50;;;;;;;12.65;82.37;101166.47;1619234;86;21067;-76
2022/09/02 03:53:08;;;;;;;6.08;1.90;;;;;;;12.60;82.44;101170.16;1618400;87;21167;-76
2022/09/02 03:55:37;;;;;;;;;;;;;;;12.53;82.38;101169.52;1615411;89;21103;-76
2022/09/02 03:58:05;;;;;;;5.12;1.37;;;;;;;12.48;82.51;101170.97;1655559;86;21146;-76
2022/09/02 04:00:33;;;;;;;3.85;1.55;;;;;;;12.40;82.52;101169.05;1647587;87;21047;-76
2022/09/02 04:03:02;;;;;;;3.45;1.80;;;;;;;12.36;82.62;101171.39;1626318;86;21152;-76
2022/09/02 04:05:30;;;;;;;4.80;1.50;;;;;;;12.32;82.58;101168.89;1652419;86;21017;-76
2022/09/02 04:07:59;;;;;;;2.08;1.60;;;;;;;12.26;82.65;101171.27;1645084;87;21065;-76
2022/09/02 04:10:27;;;;;;;4.75;1.70;;;;;;;12.24;82.77;101170.44;1645207;87;21163;-76
2022/09/02 04:12:54;;;;;;;4.08;1.55;;;;;;;12.18;82.77;101170.19;1645142;87;20975;-76
2022/09/02 04:15:22;;;;;;;3.58;1.67;;;;;;;12.15;82.82;101174.22;1645339;87;21025;-76
2022/09/02 04:17:50;;;;;;;4.95;1.50;;;;;;;12.11;82.98;101173.93;1645245;87;21067;-76
2022/09/02 04:20:19;;;;;;;4.60;1.60;;;;;;;12.09;83.06;101179.68;1645160;87;21067;-76
2022/09/02 04:22:46;;;;;;;3.87;1.75;;;;;;;12.09;83.23;101187.56;1645235;87;21190;-76
2022/09/02 04:25:13;;;;;;;7.83;2.08;;;;;;;12.08;83.39;101184.50;1645163;87;21028;-76
2022/09/02 04:27:40;;;;;;;2.62;1.50;;;;;;;12.06;83.46;101181.09;1624608;87;21539;-76
2022/09/02 04:30:09;;;;;;;2.20;1.55;;;;;;;12.06;83.78;101185.03;1645154;87;21096;-76
2022/09/02 04:32:38;;;;;;;;;;;;;;;12.07;84.01;101174.91;1647712;87;21071;-76
2022/09/02 04:35:08;;;;;;;2.95;1.60;;;;;;;12.11;84.40;101179.19;1645278;87;21106;-76
2022/09/02 04:37:36;;;;;;;4.53;1.72;;;;;;;12.13;84.47;101184.38;1646236;86;21086;-77
2022/09/02 04:40:04;;;;;;;2.47;1.60;;;;;;;12.18;84.74;101182.01;1647477;86;21015;-77
2022/09/02 04:42:32;;;;;;;3.70;1.70;;;;;;;12.23;84.83;101179.25;1661556;86;21023;-76
2022/09/02 04:45:00;;;;;;;5.28;1.87;;;;;;;12.28;84.93;101185.23;1663033;86;21050;-77
2022/09/02 04:47:27;;;;;;;4.33;1.60;;;;;;;12.33;85.03;101186.37;1628048;86;21099;-76
2022/09/02 04:49:55;;;;;;;2.60;1.55;;;;;;;12.38;85.21;101183.15;1624581;86;21036;-76
2022/09/02 04:52:23;;;;;;;5.60;1.65;;;;;;;12.41;85.19;101181.73;1624172;86;21075;-80
2022/09/02 04:54:50;;;;;;;6.08;2.15;;;;;;;12.44;85.15;101179.00;1660009;83;21102;-80
2022/09/02 04:57:17;;;;;;;3.02;1.55;;;;;;;12.47;85.18;101183.73;1665445;84;21013;-79
2022/09/02 04:59:46;;;;;;;4.30;1.60;;;;;;;12.49;85.38;101192.41;1662115;84;21142;-76
2022/09/02 05:02:13;;;;;;;2.47;1.98;;;;;;;12.54;85.49;101190.95;1667607;84;21044;-78
2022/09/02 05:04:40;;;;;;;5.62;1.90;;;;;;;12.61;85.66;101199.48;1662700;85;21160;-77
2022/09/02 05:07:10;;;;;;;4.90;1.75;;;;;;;12.64;85.59;101196.33;1664995;84;21074;-76
2022/09/02 05:09:39;;;;;;;3.83;2.77;;;;;;;12.68;85.70;101187.41;1669466;84;21506;-76
2022/09/02 05:12:07;;;;;;;3.20;1.92;;;;;;;12.73;85.71;101193.37;1660812;84;21099;-76
2022/09/02 05:14:42;;;;;;;3.05;2.08;;;;;;;12.80;85.77;101191.85;1665259;84;21052;-79
2022/09/02 05:17:09;;;;;;;3.65;1.95;;;;;;;12.84;85.53;101185.13;1663812;84;21021;-76
2022/09/02 05:19:38;;;;;;;5.40;1.90;;;;;;;12.86;85.37;101183.31;1668204;84;21544;-76
2022/09/02 05:22:05;;;;;;;2.37;1.52;;;;;;;12.88;85.31;101181.47;1667979;84;21079;-77
2022/09/02 05:24:34;;;;;;;4.90;1.80;;;;;;;12.89;85.06;101180.58;1670160;84;21947;-76
2022/09/02 05:27:04;;;;;;;3.05;2.10;;;;;;;12.89;84.72;101178.41;1658355;84;21088;-77
2022/09/02 05:29:32;;;;;;;2.45;1.55;;;;;;;12.89;85.07;101188.47;1665648;84;21080;-77
2022/09/02 05:32:00;;;;;;;3.05;1.80;;;;;;;12.90;84.78;101190.64;1662554;84;20929;-78
2022/09/02 05:34:27;;;;;;;2.50;1.98;;;;;;;12.88;84.83;101181.47;1667408;84;21071;-77
2022/09/02 05:36:56;;;;;;;3.80;1.98;;;;;;;12.90;84.97;101184.06;1666560;84;21139;-76
2022/09/02 05:39:23;;;;;;;3.92;1.77;;;;;;;12.88;84.96;101180.16;1669391;84;21007;-76
2022/09/02 05:41:51;;;;;;;4.03;1.85;;;;;;;12.92;84.92;101182.25;1666735;84;21047;-76
2022/09/02 05:44:18;;;;;;;4.00;1.80;;;;;;;12.91;84.94;101179.19;1665244;84;21608;-77
2022/09/02 05:46:45;;;;;;;3.00;1.70;;;;;;;12.94;84.96;101185.23;1668630;84;21119;-77
2022/09/02 05:49:16;;;;;;;2.65;1.65;;;;;;;12.95;85.14;101180.82;1668502;84;21955;-76
2022/09/02 05:51:49;;;;;;;3.37;1.85;;;;;;;13.02;85.13;101182.77;1670249;84;21083;-78
2022/09/02 05:54:30;;;;;;;3.47;1.80;;;;;;;13.02;84.69;101181.45;1653928;84;21079;-78
2022/09/02 05:57:04;;;;;;;3.47;1.82;;;;;;;13.04;84.59;101179.64;1637570;87;21341;-79
2022/09/02 05:59:41;;;;;;;2.80;1.90;;;;;;;13.03;84.28;101183.20;1632993;86;21083;-79
2022/09/02 06:02:05;;;;;;;3.08;1.80;;;;;;;13.05;84.57;101185.30;1650715;86;21379;-79
2022/09/02 06:04:40;;;;;;;3.47;1.90;;;;;;;13.11;84.67;101187.73;1648926;85;20981;-76
2022/09/02 06:07:09;;;;;;;2.87;1.80;;;;;;;13.15;84.36;101188.88;1644815;86;21083;-77
2022/09/02 06:09:37;;;;;;;3.72;2.30;;;;;;;13.24;84.61;101195.58;1636090;87;21068;-77
2022/09/02 06:12:05;;;;;;;3.65;2.10;;;;;;;13.29;84.65;101193.68;1632788;87;21094;-76
2022/09/02 06:14:34;;;;;;;4.80;2.22;;;;;;;13.36;84.66;101194.34;1644501;87;21132;-76
2022/09/02 06:17:03;;;;;;;3.47;1.77;;;;;;;13.42;84.52;101187.53;1635838;87;21061;-76
2022/09/02 06:19:35;;;;;;;5.53;2.37;;;;;;;13.50;84.55;101189.89;1642563;86;21075;-78
2022/09/02 06:22:04;;;;;;;5.55;2.52;;;;;;;13.55;84.28;101190.13;1644385;86;21106;-76
2022/09/02 06:24:32;;;;;;;3.83;2.25;;;;;;;13.58;84.02;101184.73;1641649;87;21059;-76
2022/09/02 06:27:01;;;;;;;3.02;2.10;;;;;;;13.61;83.96;101191.20;1637103;86;21119;-76
2022/09/02 06:29:29;;;;;;;5.00;2.22;;;;;;;13.67;83.66;101191.91;1635948;87;21044;-77
2022/09/02 06:31:57;;;;;;;3.45;2.08;;;;;;;13.70;83.86;101189.15;1639858;87;21067;-78
2022/09/02 06:34:26;;;;;;;4.12;2.30;;;;;;;13.78;83.52;101192.36;1623394;86;21072;-78
2022/09/02 06:36:55;;;;;;;3.47;2.15;;;;;;;13.81;83.58;101189.60;1596068;88;22172;-80
2022/09/02 06:39:24;;;;;;;3.92;2.17;;;;;;;13.91;84.11;101194.05;1615674;87;21904;-84
2022/09/02 06:41:52;;;;;;;3.87;1.65;;;;;;;14.02;84.14;101187.91;1615837;87;21082;-81
2022/09/02 06:44:20;;;;;;;5.58;2.37;;;;;;;14.16;83.84;101194.84;1615759;87;21528;-79
2022/09/02 06:46:55;;;;;;;5.50;2.05;;;;;;;14.25;83.84;101183.07;1616107;87;21112;-80
2022/09/02 06:49:24;;;;;;;3.75;1.80;;;;;;;14.35;83.87;101193.63;1603520;87;21600;-78
2022/09/02 06:51:55;;;;;;;3.87;1.73;;;;;;;14.48;83.94;101186.94;1616469;87;21959;-76
2022/09/02 06:54:24;;;;;;;2.10;1.67;;;;;;;14.59;83.86;101189.17;1619969;85;21634;-81
2022/09/02 06:56:53;;;;;;;2.30;1.50;;;;;;;14.71;83.89;101179.45;1663535;86;21051;-76
2022/09/02 06:59:22;;;;;;;3.75;1.40;;;;;;;14.84;83.51;101182.87;1646563;86;21066;-78
2022/09/02 07:01:51;;;;;;;2.75;1.07;;;;;;;14.97;83.74;101185.87;1663547;85;21914;-76
2022/09/02 07:07:07;;;;;;;3.12;0.80;;;;;;;15.25;83.06;101190.34;1663411;85;21125;-83
2022/09/02 07:09:36;;;;;;;2.15;0.68;;;;;;;15.39;81.82;101187.09;1663162;85;21062;-76
2022/09/02 07:12:05;;;;;;;3.95;0.93;;;;;;;15.52;81.24;101190.02;1663375;85;21046;-77
2022/09/02 07:14:41;;;;;;;1.33;0.70;;;;;;;15.60;80.56;101187.45;1663415;85;21062;-81
2022/09/02 07:17:16;;;;;;;2.27;0.82;;;;;;;15.69;79.97;101189.31;1663636;85;21118;-78
2022/09/02 07:19:40;;;;;;;1.37;0.75;;;;;;;15.79;80.10;101188.80;1663105;85;21078;-77
2022/09/02 07:22:08;;;;;;;0.90;0.60;;;;;;;15.91;79.79;101189.19;1663318;85;21065;-82
2022/09/02 07:24:37;;;;;;;0.82;0.50;;;;;;;15.99;79.38;101190.53;1663307;85;21109;-76
2022/09/02 07:27:05;;;;;;;1.82;0.80;;;;;;;16.10;79.10;101194.00;1663645;86;21074;-75
2022/09/02 07:29:34;;;;;;;3.00;0.53;;;;;;;16.18;79.09;101175.95;1673661;85;21216;-76
2022/09/02 07:32:01;;;;;;;1.32;0.45;;;;;;;16.28;78.17;101193.09;1629545;86;21080;-76
2022/09/02 07:34:29;;;;;;;1.65;0.50;;;;;;;16.37;77.58;101190.94;1673620;85;21508;-76
2022/09/02 07:36:57;;;;;;;1.15;0.60;;;;;;;16.44;77.37;101193.22;1629217;86;21052;-77
2022/09/02 07:39:24;;;;;;;1.40;0.60;;;;;;;16.52;76.96;101192.85;1673292;85;21133;-78
2022/09/02 07:41:52;;;;;;;1.32;0.65;;;;;;;16.60;76.73;101194.66;1669373;84;22310;-77
2022/09/02 07:44:21;;;;;;;1.30;0.40;;;;;;;16.69;76.55;101195.98;1663222;86;21070;-76
2022/09/02 07:46:48;;;;;;;1.77;0.50;;;;;;;16.84;75.53;101191.27;1620927;86;21088;-76
2022/09/02 07:49:19;;;;;;;2.12;0.57;;;;;;;16.84;75.53;101191.27;1621775;86;21354;-75
2022/09/02 07:51:49;;;;;;;1.67;0.60;;;;;;;16.91;75.23;101187.86;1622260;86;21153;-83
2022/09/02 07:54:22;;;;;;;2.45;0.80;;;;;;;16.99;74.96;101184.78;1663610;84;21142;-78
2022/09/02 07:56:51;;;;;;;0.82;0.50;;;;;;;17.10;74.29;101187.77;1662671;84;21097;-81
2022/09/02 07:59:20;;;;;;;1.02;0.42;;;;;;;17.20;73.89;101189.45;1643916;84;21134;-80
2022/09/02 08:01:50;;;;;;;1.35;0.40;;;;;;;17.28;73.81;101186.79;1662955;86;21059;-78
2022/09/02 08:04:23;;;;;;;1.62;0.60;;;;;;;17.41;73.26;101188.34;1621203;87;21068;-79
2022/09/02 08:06:51;;;;;;;2.50;0.40;;;;;;;17.52;72.96;101192.59;1613376;87;21215;-78
2022/09/02 08:09:20;;;;;;;1.20;0.50;;;;;;;17.58;72.50;101194.91;1614405;88;21158;-82
2022/09/02 08:11:50;;;;;;;1.20;0.50;;;;;;;17.63;72.18;101197.80;1614504;88;21544;-80
2022/09/02 08:14:24;;;;;;;0.85;0.40;;;;;;;17.76;71.90;101186.45;1614177;87;21063;-77
2022/09/02 08:16:53;;;;;;;1.52;0.50;;;;;;;17.80;71.62;101185.84;1622608;86;21080;-77
2022/09/02 08:19:22;;;;;;;0.90;0.42;;;;;;;17.90;71.17;101177.73;1663920;84;21644;-77
2022/09/02 08:21:50;;;;;;;0.90;0.40;;;;;;;17.99;70.90;101185.69;1662563;85;21078;-77
2022/09/02 08:24:16;;;;;;;2.67;0.42;;;;;;;18.09;70.59;101192.64;1663806;86;21079;-77
2022/09/02 08:26:44;;;;;;;0.75;0.40;;;;;;;18.17;70.41;101193.07;1657652;85;20999;-77
2022/09/02 08:29:12;;;;;;;1.10;0.47;;;;;;;18.24;69.90;101192.65;1665991;86;21612;-78
2022/09/02 08:31:40;;;;;;;1.22;0.50;;;;;;;18.33;69.90;101180.65;1660867;85;21373;-78
2022/09/02 08:34:07;;;;;;;2.37;0.60;;;;;;;18.41;69.35;101186.37;1661024;86;21031;-78
2022/09/02 08:36:34;;;;;;;1.67;0.53;;;;;;;18.50;69.21;101184.98;1657733;85;21050;-77
2022/09/02 08:39:03;;;;;;;1.17;0.60;;;;;;;18.60;69.14;101183.52;1657362;84;21003;-77
2022/09/02 08:41:44;;;;;;;2.50;0.83;;;;;;;18.73;68.66;101187.62;1657908;85;21070;-77
2022/09/02 08:44:19;;;;;;;0.95;0.60;;;;;;;18.81;68.52;101181.42;1656464;85;21059;-77
2022/09/02 08:46:50;;;;;;;1.67;0.70;;;;;;;18.89;67.93;101186.28;1666039;84;21066;-77
2022/09/02 08:49:31;;;;;;;1.92;0.50;;;;;;;18.97;67.54;101181.85;1665621;84;21448;-78
2022/09/02 08:52:03;;;;;;;1.55;0.60;;;;;;;19.02;67.15;101181.11;1666269;85;21564;-78
2022/09/02 08:54:45;;;;;;;0.95;0.47;;;;;;;19.09;66.85;101183.31;1666157;84;21094;-79
2022/09/02 08:57:12;;;;;;;1.07;0.55;;;;;;;19.13;66.73;101174.20;1654867;85;21095;-78
2022/09/02 08:59:42;;;;;;;0.82;0.40;;;;;;;19.21;66.46;101178.20;1671546;84;21063;-77
2022/09/02 09:02:21;;;;;;;1.10;0.50;;;;;;;19.29;66.19;101174.12;1670976;84;21601;-77
2022/09/02 09:05:13;;;;;;;0.80;0.50;;;;;;;19.35;65.49;101173.73;1670853;84;21071;-77
2022/09/02 09:08:09;;;;;;;2.35;0.60;;;;;;;19.44;65.05;101171.47;1670804;84;21052;-81
2022/09/02 09:11:09;;;;;;;0.78;0.60;;;;;;;19.46;64.74;101165.59;1670980;85;21155;-80
2022/09/02 09:14:01;;;;;;;1.42;0.65;;;;;;;19.59;65.05;101164.73;1678315;84;21049;-78
2022/09/02 09:16:36;;;;;;;1.45;0.55;;;;;;;19.72;64.68;101171.47;1644202;84;21128;-78
2022/09/02 09:19:16;;;;;;;1.75;0.60;;;;;;;19.68;63.56;101165.98;1670789;85;21582;-78
2022/09/02 09:21:43;;;;;;;3.40;0.62;;;;;;;19.65;63.10;101161.27;1659108;84;21277;-80
2022/09/02 09:24:22;;;;;;;1.40;0.62;;;;;;;19.74;63.13;101158.94;1621188;86;21086;-80
2022/09/02 09:26:50;;;;;;;1.05;0.60;;;;;;;19.81;62.46;101154.95;1662232;84;21054;-79
2022/09/02 09:29:17;;;;;;;1.20;0.40;;;;;;;19.89;62.37;101153.10;1647705;84;21161;-82
2022/09/02 09:31:49;;;;;;;2.37;0.40;;;;;;;19.98;62.33;101151.66;1656252;84;21006;-81
2022/09/02 09:34:16;;;;;;;0.70;0.40;;;;;;;20.11;62.29;101150.39;1647870;84;21090;-80
2022/09/02 09:36:54;;;;;;;1.25;0.50;;;;;;;20.27;61.71;101145.30;1625547;86;21179;-81
2022/09/02 09:39:31;;;;;;;1.55;0.35;;;;;;;20.40;60.86;101145.83;1620311;86;21036;-80
2022/09/02 09:42:05;;;;;;;2.95;0.40;;;;;;;20.50;60.94;101149.09;1642675;84;21594;-80
2022/09/02 09:44:44;;;;;;;0.85;0.50;;;;;;;20.65;60.56;101140.59;1613682;87;21073;-81
2022/09/02 09:47:19;;;;;;;;;;;;;;;20.79;60.21;101136.15;1631622;86;21008;-81
2022/09/02 09:49:53;;;;;;;1.32;0.53;;;;;;;20.89;59.15;101141.20;1629352;87;21962;-81
2022/09/02 09:52:29;;;;;;;1.62;0.33;;;;;;;21.06;59.67;101142.25;1627964;87;20998;-80
2022/09/02 09:55:19;;;;;;;0.98;0.30;;;;;;;21.16;58.71;101143.78;1619125;87;21056;-80
2022/09/02 09:57:49;;;;;;;1.77;0.50;;;;;;;21.19;57.47;101139.56;1613221;89;21102;-81
2022/09/02 10:00:30;;;;;;;2.20;0.33;;;;;;;21.22;57.13;101131.34;1613333;89;21109;-81
2022/09/02 10:03:02;;;;;;;1.25;0.50;;;;;;;21.38;56.96;101129.83;1613529;88;21558;-81
2022/09/02 10:05:36;;;;;;;2.80;0.40;;;;;;;21.39;55.84;101126.19;1613403;89;21652;-81
2022/09/02 10:08:11;;;;;;;0.98;0.33;;;;;;;21.50;56.44;101127.61;1613448;89;21071;-81
2022/09/02 10:10:39;;;;;;;0.88;0.37;;;;;;;21.72;56.09;101126.07;1609951;89;21512;-81
2022/09/02 10:13:26;;;;;;;0.93;0.37;;;;;;;21.94;55.33;101115.53;1613542;89;21303;-81
2022/09/02 10:16:01;;;;;;;0.50;0.23;;;;;;;22.06;55.06;101107.13;1613585;89;21852;-81
2022/09/02 10:18:37;;;;;;;1.17;0.35;;;;;;;22.27;54.86;101109.54;1613427;89;21043;-81
2022/09/02 10:21:27;;;;;;;2.08;0.50;;;;;;;22.53;54.46;101109.88;1612680;88;21106;-81
2022/09/02 10:24:30;;;;;;;0.90;0.40;;;;;;;22.80;54.30;101116.27;1613491;89;21710;-81
2022/09/02 10:26:59;;;;;;;1.00;0.30;;;;;;;23.07;53.37;101111.97;1613463;89;21116;-81
2022/09/02 10:29:52;;;;;;;0.50;0.30;;;;;;;23.30;53.13;101109.66;1613749;88;21138;-81
2022/09/02 10:32:42;;;;;;;0.72;0.25;;;;;;;23.57;52.63;101111.95;1572193;89;21075;-81
2022/09/02 10:35:39;;;;;;;0.80;0.50;;;;;;;23.65;51.96;101112.68;1613508;89;21043;-81
2022/09/02 10:38:43;;;;;;;0.93;0.30;;;;;;;23.75;50.71;101106.98;1577771;89;21612;-81
2022/09/02 10:41:24;;;;;;;0.45;0.40;;;;;;;23.82;50.51;101099.30;1613432;89;21235;-81
2022/09/02 10:44:19;;;;;;;0.70;0.37;;;;;;;24.03;49.65;101104.23;1611741;89;21152;-81
2022/09/02 10:47:15;;;;;;;0.60;0.40;;;;;;;24.26;49.70;101096.95;1595940;89;22092;-81
2022/09/02 10:49:47;;;;;;;0.88;0.40;;;;;;;24.49;49.38;101091.02;1611822;89;21098;-81
2022/09/02 10:52:37;;;;;;;0.30;0.23;;;;;;;24.68;48.97;101093.48;1613380;87;21122;-81
2022/09/02 10:55:20;;;;;;;;;;;;;;;24.81;48.24;101095.97;1594362;89;21620;-81
2022/09/02 10:58:01;;;;;;;1.72;0.35;;;;;;;24.76;47.10;101096.84;1638500;86;21213;-81
2022/09/02 11:00:32;;;;;;;0.72;0.30;;;;;;;24.80;47.34;101096.92;1647587;87;21115;-81
2022/09/02 11:03:22;;;;;;;0.62;0.30;;;;;;;24.80;46.59;101095.59;1647550;87;21086;-81
2022/09/02 11:06:18;;;;;;;1.32;0.47;;;;;;;24.40;45.79;101098.47;1647220;86;21016;-81
2022/09/02 11:09:22;;;;;;;0.50;0.30;;;;;;;24.07;46.34;101096.78;1623807;86;21071;-80
2022/09/02 11:12:00;;;;;;;0.80;0.30;;;;;;;24.26;46.67;101092.09;1647560;87;21161;-80
2022/09/02 11:14:35;;;;;;;2.08;0.30;;;;;;;24.62;46.78;101084.13;1638945;86;21032;-81
2022/09/02 11:17:15;;;;;;;0.82;0.40;;;;;;;24.92;46.39;101088.69;1647566;87;21630;-82
2022/09/02 11:20:15;;;;;;;1.85;0.40;;;;;;;25.07;45.84;101086.48;1647256;86;21108;-81
2022/09/02 11:22:58;;;;;;;1.65;0.30;;;;;;;24.88;44.84;101089.08;1647675;87;21071;-81
2022/09/02 11:25:39;;;;;;;1.00;0.30;;;;;;;24.31;44.70;101082.33;1647794;87;21955;-81
2022/09/02 11:28:37;;;;;;;2.30;0.30;;;;;;;24.16;45.17;101085.30;1647504;86;21003;-80
2022/09/02 11:31:16;;;;;;;1.30;0.28;;;;;;;23.88;45.09;101085.40;1626745;86;21106;-81
2022/09/02 11:34:11;;;;;;;0.42;0.30;;;;;;;23.50;44.50;101080.00;1648999;86;21052;-81
2022/09/02 11:36:40;;;;;;;1.52;0.40;;;;;;;23.21;44.79;101078.30;1647361;86;21043;-80
2022/09/02 11:39:19;;;;;;;4.25;0.30;;;;;;;23.06;45.18;101079.53;1617545;86;21272;-80
2022/09/02 11:41:57;;;;;;;1.55;0.28;;;;;;;22.85;44.79;101076.18;1649349;86;21044;-81
2022/09/02 11:44:57;;;;;;;1.00;0.30;;;;;;;22.54;44.83;101075.53;1616388;86;21039;-81
2022/09/02 11:47:41;;;;;;;;;;;;;;;22.19;44.79;101077.22;1648135;86;21027;-81
2022/09/02 11:50:42;;;;;;;1.45;0.40;;;;;;;22.01;44.95;101073.24;1647660;87;20474;-80
2022/09/02 11:53:26;;;;;;;1.10;0.53;;;;;;;21.84;45.39;101073.16;1647486;87;21394;-81